sensor_id;sensor_type;location;lat;lon;timestamp;P1;durP1;ratioP1;P2;durP2;ratioP2
5987;SDS011;3021;51.000;6.980;2023-06-01T00:01:48;4.45;;;2.88;;
5987;SDS011;3021;51.000;6.980;2023-06-01T00:04:13;7.18;;;2.80;;
5987;SDS011;3021;51.000;6.980;2023-06-01T00:06:39;6.32;;;2.67;;
5987;SDS011;3021;51.000;6.980;2023-06-01T00:09:05;6.88;;;2.97;;
5987;SDS011;3021;51.000;6.980;2023-06-01T00:11:31;5.82;;;2.80;;
5987;SDS011;3021;51.000;6.980;2023-06-01T00:13:56;5.63;;;2.50;;
5987;SDS011;3021;51.000;6.980;2023-06-01T00:16:22;6.57;;;2.50;;
5987;SDS011;3021;51.000;6.980;2023-06-01T00:18:47;5.72;;;2.58;;
5987;SDS011;3021;51.000;6.980;2023-06-01T00:21:13;4.68;;;2.17;;
5987;SDS011;3021;51.000;6.980;2023-06-01T00:23:38;6.55;;;2.80;;
5987;SDS011;3021;51.000;6.980;2023-06-01T00:26:06;9.50;;;2.70;;
5987;SDS011;3021;51.000;6.980;2023-06-01T00:28:32;7.78;;;2.72;;
5987;SDS011;3021;51.000;6.980;2023-06-01T00:30:57;6.57;;;2.35;;
5987;SDS011;3021;51.000;6.980;2023-06-01T00:33:23;5.20;;;2.22;;
5987;SDS011;3021;51.000;6.980;2023-06-01T00:35:48;6.88;;;2.45;;
5987;SDS011;3021;51.000;6.980;2023-06-01T00:38:14;6.03;;;2.30;;
5987;SDS011;3021;51.000;6.980;2023-06-01T00:40:40;6.22;;;2.70;;
5987;SDS011;3021;51.000;6.980;2023-06-01T00:43:05;5.28;;;2.25;;
5987;SDS011;3021;51.000;6.980;2023-06-01T00:45:30;5.35;;;2.55;;
5987;SDS011;3021;51.000;6.980;2023-06-01T00:47:56;5.47;;;2.28;;
5987;SDS011;3021;51.000;6.980;2023-06-01T00:50:22;4.72;;;2.40;;
5987;SDS011;3021;51.000;6.980;2023-06-01T00:52:48;9.90;;;2.78;;
5987;SDS011;3021;51.000;6.980;2023-06-01T00:55:16;6.82;;;2.65;;
5987;SDS011;3021;51.000;6.980;2023-06-01T00:57:45;5.22;;;2.45;;
5987;SDS011;3021;51.000;6.980;2023-06-01T01:00:10;6.60;;;2.50;;
5987;SDS011;3021;51.000;6.980;2023-06-01T01:02:37;8.48;;;2.55;;
5987;SDS011;3021;51.000;6.980;2023-06-01T01:05:09;4.07;;;2.20;;
5987;SDS011;3021;51.000;6.980;2023-06-01T01:07:51;4.07;;;2.53;;
5987;SDS011;3021;51.000;6.980;2023-06-01T01:13:00;8.13;;;2.78;;
5987;SDS011;3021;51.000;6.980;2023-06-01T01:15:34;3.92;;;2.50;;
5987;SDS011;3021;51.000;6.980;2023-06-01T01:18:18;2.88;;;2.13;;
5987;SDS011;3021;51.000;6.980;2023-06-01T01:20:55;4.93;;;2.40;;
5987;SDS011;3021;51.000;6.980;2023-06-01T01:29:28;6.40;;;2.80;;
5987;SDS011;3021;51.000;6.980;2023-06-01T01:31:55;8.57;;;2.70;;
5987;SDS011;3021;51.000;6.980;2023-06-01T01:34:21;4.40;;;2.22;;
5987;SDS011;3021;51.000;6.980;2023-06-01T01:36:51;4.63;;;2.55;;
5987;SDS011;3021;51.000;6.980;2023-06-01T01:39:17;5.70;;;2.83;;
5987;SDS011;3021;51.000;6.980;2023-06-01T01:41:42;6.95;;;3.72;;
5987;SDS011;3021;51.000;6.980;2023-06-01T01:44:07;5.38;;;3.10;;
5987;SDS011;3021;51.000;6.980;2023-06-01T01:46:36;5.00;;;2.42;;
5987;SDS011;3021;51.000;6.980;2023-06-01T01:49:09;7.93;;;2.70;;
5987;SDS011;3021;51.000;6.980;2023-06-01T01:51:43;8.05;;;2.92;;
5987;SDS011;3021;51.000;6.980;2023-06-01T01:54:14;4.82;;;2.55;;
5987;SDS011;3021;51.000;6.980;2023-06-01T01:56:39;6.95;;;3.30;;
5987;SDS011;3021;51.000;6.980;2023-06-01T01:59:05;5.68;;;3.08;;
5987;SDS011;3021;51.000;6.980;2023-06-01T02:01:32;4.30;;;2.47;;
5987;SDS011;3021;51.000;6.980;2023-06-01T02:04:01;8.98;;;3.17;;
5987;SDS011;3021;51.000;6.980;2023-06-01T02:06:28;7.43;;;2.92;;
5987;SDS011;3021;51.000;6.980;2023-06-01T02:08:53;5.30;;;2.95;;
5987;SDS011;3021;51.000;6.980;2023-06-01T02:11:19;7.18;;;2.92;;
5987;SDS011;3021;51.000;6.980;2023-06-01T02:13:44;8.10;;;2.95;;
5987;SDS011;3021;51.000;6.980;2023-06-01T02:16:09;5.15;;;2.30;;
5987;SDS011;3021;51.000;6.980;2023-06-01T02:18:35;6.43;;;3.10;;
5987;SDS011;3021;51.000;6.980;2023-06-01T02:21:04;9.05;;;3.33;;
5987;SDS011;3021;51.000;6.980;2023-06-01T02:23:30;6.93;;;2.90;;
5987;SDS011;3021;51.000;6.980;2023-06-01T02:25:55;5.18;;;2.90;;
5987;SDS011;3021;51.000;6.980;2023-06-01T02:28:20;8.30;;;3.08;;
5987;SDS011;3021;51.000;6.980;2023-06-01T02:30:46;6.90;;;3.05;;
5987;SDS011;3021;51.000;6.980;2023-06-01T02:33:11;9.50;;;2.95;;
5987;SDS011;3021;51.000;6.980;2023-06-01T02:35:36;8.63;;;3.53;;
5987;SDS011;3021;51.000;6.980;2023-06-01T02:38:01;4.60;;;2.90;;
5987;SDS011;3021;51.000;6.980;2023-06-01T02:40:27;8.25;;;3.40;;
5987;SDS011;3021;51.000;6.980;2023-06-01T02:42:53;6.10;;;3.03;;
5987;SDS011;3021;51.000;6.980;2023-06-01T02:45:18;6.38;;;3.20;;
5987;SDS011;3021;51.000;6.980;2023-06-01T02:47:43;6.45;;;3.28;;
5987;SDS011;3021;51.000;6.980;2023-06-01T02:50:10;6.88;;;3.47;;
5987;SDS011;3021;51.000;6.980;2023-06-01T02:52:35;6.75;;;3.45;;
5987;SDS011;3021;51.000;6.980;2023-06-01T02:55:01;6.38;;;3.03;;
5987;SDS011;3021;51.000;6.980;2023-06-01T02:57:26;9.85;;;3.88;;
5987;SDS011;3021;51.000;6.980;2023-06-01T02:59:51;6.47;;;3.40;;
5987;SDS011;3021;51.000;6.980;2023-06-01T03:02:17;8.57;;;3.97;;
5987;SDS011;3021;51.000;6.980;2023-06-01T03:04:42;5.40;;;3.42;;
5987;SDS011;3021;51.000;6.980;2023-06-01T03:07:08;6.95;;;3.58;;
5987;SDS011;3021;51.000;6.980;2023-06-01T03:09:33;8.13;;;3.75;;
5987;SDS011;3021;51.000;6.980;2023-06-01T03:11:59;10.27;;;4.03;;
5987;SDS011;3021;51.000;6.980;2023-06-01T03:14:26;9.40;;;3.97;;
5987;SDS011;3021;51.000;6.980;2023-06-01T03:16:51;8.75;;;4.18;;
5987;SDS011;3021;51.000;6.980;2023-06-01T03:19:17;11.48;;;4.20;;
5987;SDS011;3021;51.000;6.980;2023-06-01T03:21:42;6.35;;;3.80;;
5987;SDS011;3021;51.000;6.980;2023-06-01T03:24:07;6.60;;;3.97;;
5987;SDS011;3021;51.000;6.980;2023-06-01T03:26:33;7.40;;;3.78;;
5987;SDS011;3021;51.000;6.980;2023-06-01T03:28:58;11.90;;;4.50;;
5987;SDS011;3021;51.000;6.980;2023-06-01T03:31:24;9.75;;;4.25;;
5987;SDS011;3021;51.000;6.980;2023-06-01T03:33:49;9.98;;;4.13;;
5987;SDS011;3021;51.000;6.980;2023-06-01T03:36:15;16.50;;;5.20;;
5987;SDS011;3021;51.000;6.980;2023-06-01T03:38:41;11.27;;;4.65;;
5987;SDS011;3021;51.000;6.980;2023-06-01T03:41:07;9.85;;;4.55;;
5987;SDS011;3021;51.000;6.980;2023-06-01T03:43:33;10.32;;;5.68;;
5987;SDS011;3021;51.000;6.980;2023-06-01T03:45:58;12.00;;;5.13;;
5987;SDS011;3021;51.000;6.980;2023-06-01T03:48:23;12.40;;;5.35;;
5987;SDS011;3021;51.000;6.980;2023-06-01T03:50:49;8.75;;;4.80;;
5987;SDS011;3021;51.000;6.980;2023-06-01T03:53:14;9.20;;;5.72;;
5987;SDS011;3021;51.000;6.980;2023-06-01T03:55:40;12.13;;;6.10;;
5987;SDS011;3021;51.000;6.980;2023-06-01T03:58:05;12.25;;;6.47;;
5987;SDS011;3021;51.000;6.980;2023-06-01T04:00:32;11.77;;;6.18;;
5987;SDS011;3021;51.000;6.980;2023-06-01T04:02:58;13.93;;;7.20;;
5987;SDS011;3021;51.000;6.980;2023-06-01T04:05:26;13.25;;;6.63;;
5987;SDS011;3021;51.000;6.980;2023-06-01T04:07:52;15.35;;;6.93;;
5987;SDS011;3021;51.000;6.980;2023-06-01T04:10:19;15.82;;;7.03;;
5987;SDS011;3021;51.000;6.980;2023-06-01T04:12:46;11.90;;;7.43;;
5987;SDS011;3021;51.000;6.980;2023-06-01T04:15:17;16.10;;;8.20;;
5987;SDS011;3021;51.000;6.980;2023-06-01T04:17:43;14.77;;;7.43;;
5987;SDS011;3021;51.000;6.980;2023-06-01T04:20:10;16.83;;;8.15;;
5987;SDS011;3021;51.000;6.980;2023-06-01T04:22:37;16.15;;;7.82;;
5987;SDS011;3021;51.000;6.980;2023-06-01T04:25:04;20.88;;;8.70;;
5987;SDS011;3021;51.000;6.980;2023-06-01T04:27:32;18.85;;;8.93;;
5987;SDS011;3021;51.000;6.980;2023-06-01T04:30:01;20.58;;;8.57;;
5987;SDS011;3021;51.000;6.980;2023-06-01T04:32:27;16.73;;;9.02;;
5987;SDS011;3021;51.000;6.980;2023-06-01T04:34:52;20.20;;;9.65;;
5987;SDS011;3021;51.000;6.980;2023-06-01T04:37:18;19.40;;;9.60;;
5987;SDS011;3021;51.000;6.980;2023-06-01T04:39:49;18.55;;;9.73;;
5987;SDS011;3021;51.000;6.980;2023-06-01T04:42:15;16.17;;;10.35;;
5987;SDS011;3021;51.000;6.980;2023-06-01T04:44:42;19.60;;;10.18;;
5987;SDS011;3021;51.000;6.980;2023-06-01T04:47:10;18.10;;;10.52;;
5987;SDS011;3021;51.000;6.980;2023-06-01T04:49:35;16.45;;;10.38;;
5987;SDS011;3021;51.000;6.980;2023-06-01T04:52:02;18.42;;;10.23;;
5987;SDS011;3021;51.000;6.980;2023-06-01T04:54:29;21.55;;;10.15;;
5987;SDS011;3021;51.000;6.980;2023-06-01T04:56:55;22.40;;;10.32;;
5987;SDS011;3021;51.000;6.980;2023-06-01T04:59:20;20.45;;;10.75;;
5987;SDS011;3021;51.000;6.980;2023-06-01T05:01:46;18.90;;;11.13;;
5987;SDS011;3021;51.000;6.980;2023-06-01T05:04:11;26.75;;;12.00;;
5987;SDS011;3021;51.000;6.980;2023-06-01T05:06:36;19.77;;;12.00;;
5987;SDS011;3021;51.000;6.980;2023-06-01T05:09:02;21.73;;;12.43;;
5987;SDS011;3021;51.000;6.980;2023-06-01T05:11:30;22.17;;;12.25;;
5987;SDS011;3021;51.000;6.980;2023-06-01T05:13:55;19.88;;;12.63;;
5987;SDS011;3021;51.000;6.980;2023-06-01T05:16:26;19.98;;;11.60;;
5987;SDS011;3021;51.000;6.980;2023-06-01T05:18:52;18.30;;;11.93;;
5987;SDS011;3021;51.000;6.980;2023-06-01T05:21:17;20.70;;;12.45;;
5987;SDS011;3021;51.000;6.980;2023-06-01T05:23:42;21.88;;;12.30;;
5987;SDS011;3021;51.000;6.980;2023-06-01T05:26:08;24.60;;;13.13;;
5987;SDS011;3021;51.000;6.980;2023-06-01T05:28:33;21.25;;;13.48;;
5987;SDS011;3021;51.000;6.980;2023-06-01T05:31:00;19.30;;;14.23;;
5987;SDS011;3021;51.000;6.980;2023-06-01T05:33:26;27.25;;;15.25;;
5987;SDS011;3021;51.000;6.980;2023-06-01T05:35:51;27.23;;;15.18;;
5987;SDS011;3021;51.000;6.980;2023-06-01T05:38:17;24.60;;;15.55;;
5987;SDS011;3021;51.000;6.980;2023-06-01T05:40:44;31.75;;;17.00;;
5987;SDS011;3021;51.000;6.980;2023-06-01T05:43:10;26.13;;;17.42;;
5987;SDS011;3021;51.000;6.980;2023-06-01T05:45:35;30.40;;;17.75;;
5987;SDS011;3021;51.000;6.980;2023-06-01T05:48:01;29.23;;;17.40;;
5987;SDS011;3021;51.000;6.980;2023-06-01T05:50:27;33.35;;;20.35;;
5987;SDS011;3021;51.000;6.980;2023-06-01T05:52:52;31.55;;;19.13;;
5987;SDS011;3021;51.000;6.980;2023-06-01T05:55:18;30.55;;;19.05;;
5987;SDS011;3021;51.000;6.980;2023-06-01T05:57:43;29.90;;;19.05;;
5987;SDS011;3021;51.000;6.980;2023-06-01T06:00:10;31.10;;;19.75;;
5987;SDS011;3021;51.000;6.980;2023-06-01T06:02:37;32.70;;;20.23;;
5987;SDS011;3021;51.000;6.980;2023-06-01T06:05:03;30.33;;;18.92;;
5987;SDS011;3021;51.000;6.980;2023-06-01T06:07:29;30.60;;;19.60;;
5987;SDS011;3021;51.000;6.980;2023-06-01T06:09:55;30.40;;;17.80;;
5987;SDS011;3021;51.000;6.980;2023-06-01T06:12:20;33.42;;;19.67;;
5987;SDS011;3021;51.000;6.980;2023-06-01T06:14:46;33.22;;;19.90;;
5987;SDS011;3021;51.000;6.980;2023-06-01T06:17:12;31.65;;;18.55;;
5987;SDS011;3021;51.000;6.980;2023-06-01T06:19:37;28.13;;;17.55;;
5987;SDS011;3021;51.000;6.980;2023-06-01T06:22:03;32.47;;;18.33;;
5987;SDS011;3021;51.000;6.980;2023-06-01T06:24:28;28.38;;;17.33;;
5987;SDS011;3021;51.000;6.980;2023-06-01T06:26:54;30.58;;;18.77;;
5987;SDS011;3021;51.000;6.980;2023-06-01T06:29:19;29.00;;;18.10;;
5987;SDS011;3021;51.000;6.980;2023-06-01T06:31:45;32.25;;;17.98;;
5987;SDS011;3021;51.000;6.980;2023-06-01T06:34:13;33.13;;;18.77;;
5987;SDS011;3021;51.000;6.980;2023-06-01T06:36:38;27.38;;;18.42;;
5987;SDS011;3021;51.000;6.980;2023-06-01T06:39:04;30.52;;;18.65;;
5987;SDS011;3021;51.000;6.980;2023-06-01T06:41:29;28.95;;;18.05;;
5987;SDS011;3021;51.000;6.980;2023-06-01T06:43:55;29.45;;;18.67;;
5987;SDS011;3021;51.000;6.980;2023-06-01T06:46:20;27.15;;;19.23;;
5987;SDS011;3021;51.000;6.980;2023-06-01T06:48:46;31.67;;;18.85;;
5987;SDS011;3021;51.000;6.980;2023-06-01T06:51:11;26.95;;;18.30;;
5987;SDS011;3021;51.000;6.980;2023-06-01T06:53:37;29.00;;;17.67;;
5987;SDS011;3021;51.000;6.980;2023-06-01T06:56:02;27.73;;;18.73;;
5987;SDS011;3021;51.000;6.980;2023-06-01T06:58:27;30.00;;;18.98;;
5987;SDS011;3021;51.000;6.980;2023-06-01T07:00:53;35.10;;;18.90;;
5987;SDS011;3021;51.000;6.980;2023-06-01T07:03:18;29.23;;;19.63;;
5987;SDS011;3021;51.000;6.980;2023-06-01T07:05:44;32.88;;;20.05;;
5987;SDS011;3021;51.000;6.980;2023-06-01T07:08:10;32.83;;;19.67;;
5987;SDS011;3021;51.000;6.980;2023-06-01T07:10:36;32.03;;;21.05;;
5987;SDS011;3021;51.000;6.980;2023-06-01T07:13:01;28.95;;;19.17;;
5987;SDS011;3021;51.000;6.980;2023-06-01T07:15:27;33.42;;;19.60;;
5987;SDS011;3021;51.000;6.980;2023-06-01T07:17:52;33.25;;;20.60;;
5987;SDS011;3021;51.000;6.980;2023-06-01T07:20:17;38.47;;;22.80;;
5987;SDS011;3021;51.000;6.980;2023-06-01T07:22:43;33.83;;;21.13;;
5987;SDS011;3021;51.000;6.980;2023-06-01T07:25:08;36.17;;;22.58;;
5987;SDS011;3021;51.000;6.980;2023-06-01T07:27:35;33.97;;;22.40;;
5987;SDS011;3021;51.000;6.980;2023-06-01T07:30:04;32.92;;;21.27;;
5987;SDS011;3021;51.000;6.980;2023-06-01T07:32:30;31.40;;;20.80;;
5987;SDS011;3021;51.000;6.980;2023-06-01T07:34:56;34.72;;;21.73;;
5987;SDS011;3021;51.000;6.980;2023-06-01T07:37:23;34.67;;;22.70;;
5987;SDS011;3021;51.000;6.980;2023-06-01T07:39:49;33.80;;;21.02;;
5987;SDS011;3021;51.000;6.980;2023-06-01T07:42:15;30.75;;;21.17;;
5987;SDS011;3021;51.000;6.980;2023-06-01T07:44:41;29.88;;;21.17;;
5987;SDS011;3021;51.000;6.980;2023-06-01T07:47:06;33.25;;;22.25;;
5987;SDS011;3021;51.000;6.980;2023-06-01T07:49:32;34.15;;;22.25;;
5987;SDS011;3021;51.000;6.980;2023-06-01T07:52:00;33.20;;;22.50;;
5987;SDS011;3021;51.000;6.980;2023-06-01T07:54:26;31.58;;;20.98;;
5987;SDS011;3021;51.000;6.980;2023-06-01T07:56:51;32.15;;;21.58;;
5987;SDS011;3021;51.000;6.980;2023-06-01T07:59:17;28.80;;;20.42;;
5987;SDS011;3021;51.000;6.980;2023-06-01T08:01:42;29.92;;;20.33;;
5987;SDS011;3021;51.000;6.980;2023-06-01T08:04:07;36.30;;;20.70;;
5987;SDS011;3021;51.000;6.980;2023-06-01T08:06:33;32.42;;;21.10;;
5987;SDS011;3021;51.000;6.980;2023-06-01T08:09:01;30.83;;;19.65;;
5987;SDS011;3021;51.000;6.980;2023-06-01T08:11:27;31.63;;;19.90;;
5987;SDS011;3021;51.000;6.980;2023-06-01T08:13:53;32.33;;;19.73;;
5987;SDS011;3021;51.000;6.980;2023-06-01T08:16:18;29.42;;;20.02;;
5987;SDS011;3021;51.000;6.980;2023-06-01T08:18:43;30.17;;;19.98;;
5987;SDS011;3021;51.000;6.980;2023-06-01T08:21:09;30.88;;;19.27;;
5987;SDS011;3021;51.000;6.980;2023-06-01T08:23:35;30.42;;;19.70;;
5987;SDS011;3021;51.000;6.980;2023-06-01T08:26:00;31.75;;;20.23;;
5987;SDS011;3021;51.000;6.980;2023-06-01T08:28:26;33.08;;;19.92;;
5987;SDS011;3021;51.000;6.980;2023-06-01T08:30:51;28.30;;;19.95;;
5987;SDS011;3021;51.000;6.980;2023-06-01T08:33:17;30.88;;;19.33;;
5987;SDS011;3021;51.000;6.980;2023-06-01T08:35:42;27.05;;;19.63;;
5987;SDS011;3021;51.000;6.980;2023-06-01T08:38:07;27.27;;;18.95;;
5987;SDS011;3021;51.000;6.980;2023-06-01T08:40:33;28.00;;;18.27;;
5987;SDS011;3021;51.000;6.980;2023-06-01T08:42:59;29.48;;;19.30;;
5987;SDS011;3021;51.000;6.980;2023-06-01T08:45:34;27.70;;;18.42;;
5987;SDS011;3021;51.000;6.980;2023-06-01T08:47:59;27.42;;;18.33;;
5987;SDS011;3021;51.000;6.980;2023-06-01T08:50:27;22.83;;;17.13;;
5987;SDS011;3021;51.000;6.980;2023-06-01T08:52:53;25.63;;;17.85;;
5987;SDS011;3021;51.000;6.980;2023-06-01T08:55:21;25.83;;;17.17;;
5987;SDS011;3021;51.000;6.980;2023-06-01T08:57:47;22.17;;;17.08;;
5987;SDS011;3021;51.000;6.980;2023-06-01T09:00:13;27.98;;;18.00;;
5987;SDS011;3021;51.000;6.980;2023-06-01T09:02:39;27.55;;;19.33;;
5987;SDS011;3021;51.000;6.980;2023-06-01T09:05:05;26.33;;;17.65;;
5987;SDS011;3021;51.000;6.980;2023-06-01T09:07:31;23.75;;;17.05;;
5987;SDS011;3021;51.000;6.980;2023-06-01T09:09:56;28.55;;;17.80;;
5987;SDS011;3021;51.000;6.980;2023-06-01T09:14:49;25.52;;;15.23;;
5987;SDS011;3021;51.000;6.980;2023-06-01T09:17:20;22.15;;;14.57;;
5987;SDS011;3021;51.000;6.980;2023-06-01T09:19:47;26.42;;;16.75;;
5987;SDS011;3021;51.000;6.980;2023-06-01T09:22:12;19.60;;;14.63;;
5987;SDS011;3021;51.000;6.980;2023-06-01T09:24:38;22.52;;;15.13;;
5987;SDS011;3021;51.000;6.980;2023-06-01T09:27:06;21.88;;;14.02;;
5987;SDS011;3021;51.000;6.980;2023-06-01T09:29:31;18.63;;;13.35;;
5987;SDS011;3021;51.000;6.980;2023-06-01T09:31:57;20.95;;;14.43;;
5987;SDS011;3021;51.000;6.980;2023-06-01T09:34:25;20.17;;;13.60;;
5987;SDS011;3021;51.000;6.980;2023-06-01T09:39:20;18.70;;;14.13;;
5987;SDS011;3021;51.000;6.980;2023-06-01T09:41:57;18.70;;;14.32;;
5987;SDS011;3021;51.000;6.980;2023-06-01T09:44:31;21.35;;;13.77;;
5987;SDS011;3021;51.000;6.980;2023-06-01T09:47:04;15.87;;;12.70;;
5987;SDS011;3021;51.000;6.980;2023-06-01T09:52:15;16.27;;;13.05;;
5987;SDS011;3021;51.000;6.980;2023-06-01T09:57:07;19.23;;;12.27;;
5987;SDS011;3021;51.000;6.980;2023-06-01T09:59:40;16.13;;;12.45;;
5987;SDS011;3021;51.000;6.980;2023-06-01T10:02:07;16.20;;;12.23;;
5987;SDS011;3021;51.000;6.980;2023-06-01T10:04:36;19.08;;;12.43;;
5987;SDS011;3021;51.000;6.980;2023-06-01T10:07:04;18.92;;;12.10;;
5987;SDS011;3021;51.000;6.980;2023-06-01T10:09:31;20.80;;;12.15;;
5987;SDS011;3021;51.000;6.980;2023-06-01T10:11:57;18.13;;;11.93;;
5987;SDS011;3021;51.000;6.980;2023-06-01T10:14:23;15.40;;;10.93;;
5987;SDS011;3021;51.000;6.980;2023-06-01T10:16:50;16.50;;;11.55;;
5987;SDS011;3021;51.000;6.980;2023-06-01T10:19:17;14.07;;;10.65;;
5987;SDS011;3021;51.000;6.980;2023-06-01T10:21:44;16.83;;;10.00;;
5987;SDS011;3021;51.000;6.980;2023-06-01T10:24:13;15.45;;;10.52;;
5987;SDS011;3021;51.000;6.980;2023-06-01T10:29:26;14.75;;;10.20;;
5987;SDS011;3021;51.000;6.980;2023-06-01T10:31:54;15.20;;;9.93;;
5987;SDS011;3021;51.000;6.980;2023-06-01T10:34:36;12.77;;;9.30;;
5987;SDS011;3021;51.000;6.980;2023-06-01T10:37:09;15.45;;;8.68;;
5987;SDS011;3021;51.000;6.980;2023-06-01T10:39:36;16.65;;;9.88;;
5987;SDS011;3021;51.000;6.980;2023-06-01T10:52:33;14.20;;;7.75;;
5987;SDS011;3021;51.000;6.980;2023-06-01T10:57:39;12.30;;;6.80;;
5987;SDS011;3021;51.000;6.980;2023-06-01T11:02:52;9.60;;;7.63;;
5987;SDS011;3021;51.000;6.980;2023-06-01T11:08:04;13.27;;;7.75;;
5987;SDS011;3021;51.000;6.980;2023-06-01T11:13:15;9.82;;;7.78;;
5987;SDS011;3021;51.000;6.980;2023-06-01T11:21:14;10.90;;;6.80;;
5987;SDS011;3021;51.000;6.980;2023-06-01T11:23:41;16.40;;;8.85;;
5987;SDS011;3021;51.000;6.980;2023-06-01T11:26:07;15.30;;;8.20;;
5987;SDS011;3021;51.000;6.980;2023-06-01T11:28:33;15.32;;;8.20;;
5987;SDS011;3021;51.000;6.980;2023-06-01T11:31:00;11.07;;;7.88;;
5987;SDS011;3021;51.000;6.980;2023-06-01T11:33:29;12.02;;;8.07;;
5987;SDS011;3021;51.000;6.980;2023-06-01T11:35:57;16.20;;;7.72;;
5987;SDS011;3021;51.000;6.980;2023-06-01T11:38:23;13.73;;;8.25;;
5987;SDS011;3021;51.000;6.980;2023-06-01T11:41:01;11.43;;;8.43;;
5987;SDS011;3021;51.000;6.980;2023-06-01T11:43:28;13.57;;;8.65;;
5987;SDS011;3021;51.000;6.980;2023-06-01T11:46:04;14.25;;;8.00;;
5987;SDS011;3021;51.000;6.980;2023-06-01T11:48:36;13.98;;;8.73;;
5987;SDS011;3021;51.000;6.980;2023-06-01T11:51:02;14.35;;;9.35;;
5987;SDS011;3021;51.000;6.980;2023-06-01T11:53:29;16.35;;;9.38;;
5987;SDS011;3021;51.000;6.980;2023-06-01T11:55:58;14.98;;;8.20;;
5987;SDS011;3021;51.000;6.980;2023-06-01T11:58:24;17.85;;;10.02;;
5987;SDS011;3021;51.000;6.980;2023-06-01T12:00:51;19.30;;;10.10;;
5987;SDS011;3021;51.000;6.980;2023-06-01T12:03:17;12.45;;;9.48;;
5987;SDS011;3021;51.000;6.980;2023-06-01T12:05:43;13.85;;;9.25;;
5987;SDS011;3021;51.000;6.980;2023-06-01T12:08:18;19.27;;;11.15;;
5987;SDS011;3021;51.000;6.980;2023-06-01T12:10:46;14.20;;;9.85;;
5987;SDS011;3021;51.000;6.980;2023-06-01T12:13:12;16.58;;;12.30;;
5987;SDS011;3021;51.000;6.980;2023-06-01T12:15:41;21.55;;;13.57;;
5987;SDS011;3021;51.000;6.980;2023-06-01T12:18:07;20.83;;;13.90;;
5987;SDS011;3021;51.000;6.980;2023-06-01T12:20:37;22.02;;;15.25;;
5987;SDS011;3021;51.000;6.980;2023-06-01T12:25:34;25.13;;;15.40;;
5987;SDS011;3021;51.000;6.980;2023-06-01T12:28:04;20.13;;;14.75;;
5987;SDS011;3021;51.000;6.980;2023-06-01T12:30:30;29.40;;;16.35;;
5987;SDS011;3021;51.000;6.980;2023-06-01T12:32:56;22.17;;;15.95;;
5987;SDS011;3021;51.000;6.980;2023-06-01T12:35:22;21.88;;;16.13;;
5987;SDS011;3021;51.000;6.980;2023-06-01T12:40:35;25.02;;;16.40;;
5987;SDS011;3021;51.000;6.980;2023-06-01T12:43:02;21.02;;;15.90;;
5987;SDS011;3021;51.000;6.980;2023-06-01T12:45:35;28.33;;;15.07;;
5987;SDS011;3021;51.000;6.980;2023-06-01T12:48:01;27.55;;;15.30;;
5987;SDS011;3021;51.000;6.980;2023-06-01T12:50:26;25.90;;;14.20;;
5987;SDS011;3021;51.000;6.980;2023-06-01T12:52:52;21.52;;;13.10;;
5987;SDS011;3021;51.000;6.980;2023-06-01T12:55:17;19.30;;;12.00;;
5987;SDS011;3021;51.000;6.980;2023-06-01T12:57:43;22.70;;;15.27;;
5987;SDS011;3021;51.000;6.980;2023-06-01T13:00:16;24.10;;;15.68;;
5987;SDS011;3021;51.000;6.980;2023-06-01T13:02:42;21.30;;;14.82;;
5987;SDS011;3021;51.000;6.980;2023-06-01T13:05:07;23.52;;;15.15;;
5987;SDS011;3021;51.000;6.980;2023-06-01T13:07:34;25.13;;;14.10;;
5987;SDS011;3021;51.000;6.980;2023-06-01T13:10:00;23.00;;;12.63;;
5987;SDS011;3021;51.000;6.980;2023-06-01T13:12:26;18.55;;;11.40;;
5987;SDS011;3021;51.000;6.980;2023-06-01T13:14:52;23.08;;;12.77;;
5987;SDS011;3021;51.000;6.980;2023-06-01T13:17:17;25.58;;;12.60;;
5987;SDS011;3021;51.000;6.980;2023-06-01T13:19:43;23.30;;;11.65;;
5987;SDS011;3021;51.000;6.980;2023-06-01T13:22:08;20.50;;;9.77;;
5987;SDS011;3021;51.000;6.980;2023-06-01T13:24:34;16.70;;;9.48;;
5987;SDS011;3021;51.000;6.980;2023-06-01T13:26:59;18.10;;;9.35;;
5987;SDS011;3021;51.000;6.980;2023-06-01T13:29:25;14.63;;;8.68;;
5987;SDS011;3021;51.000;6.980;2023-06-01T13:31:50;23.00;;;9.73;;
5987;SDS011;3021;51.000;6.980;2023-06-01T13:34:16;13.25;;;8.85;;
5987;SDS011;3021;51.000;6.980;2023-06-01T13:36:45;16.73;;;8.18;;
5987;SDS011;3021;51.000;6.980;2023-06-01T13:39:11;13.57;;;7.40;;
5987;SDS011;3021;51.000;6.980;2023-06-01T13:41:36;14.02;;;6.88;;
5987;SDS011;3021;51.000;6.980;2023-06-01T13:44:01;16.30;;;8.40;;
5987;SDS011;3021;51.000;6.980;2023-06-01T13:46:27;15.73;;;6.93;;
5987;SDS011;3021;51.000;6.980;2023-06-01T13:48:53;14.02;;;7.00;;
5987;SDS011;3021;51.000;6.980;2023-06-01T13:51:18;24.38;;;16.08;;
5987;SDS011;3021;51.000;6.980;2023-06-01T13:53:43;13.75;;;7.28;;
5987;SDS011;3021;51.000;6.980;2023-06-01T13:56:09;18.83;;;7.28;;
5987;SDS011;3021;51.000;6.980;2023-06-01T13:58:34;16.25;;;7.78;;
5987;SDS011;3021;51.000;6.980;2023-06-01T14:01:00;14.50;;;7.05;;
5987;SDS011;3021;51.000;6.980;2023-06-01T14:03:26;13.60;;;7.50;;
5987;SDS011;3021;51.000;6.980;2023-06-01T14:05:51;13.75;;;7.22;;
5987;SDS011;3021;51.000;6.980;2023-06-01T14:08:16;13.25;;;7.05;;
5987;SDS011;3021;51.000;6.980;2023-06-01T14:10:42;16.98;;;8.40;;
5987;SDS011;3021;51.000;6.980;2023-06-01T14:13:07;13.90;;;7.13;;
5987;SDS011;3021;51.000;6.980;2023-06-01T14:15:33;17.08;;;7.80;;
5987;SDS011;3021;51.000;6.980;2023-06-01T14:17:58;13.52;;;7.65;;
5987;SDS011;3021;51.000;6.980;2023-06-01T14:20:23;14.52;;;7.40;;
5987;SDS011;3021;51.000;6.980;2023-06-01T14:22:49;12.98;;;7.00;;
5987;SDS011;3021;51.000;6.980;2023-06-01T14:25:14;18.65;;;8.98;;
5987;SDS011;3021;51.000;6.980;2023-06-01T14:27:39;16.10;;;7.60;;
5987;SDS011;3021;51.000;6.980;2023-06-01T14:30:05;16.05;;;7.35;;
5987;SDS011;3021;51.000;6.980;2023-06-01T14:32:32;17.50;;;7.70;;
5987;SDS011;3021;51.000;6.980;2023-06-01T14:34:58;15.32;;;7.43;;
5987;SDS011;3021;51.000;6.980;2023-06-01T14:37:23;12.85;;;6.90;;
5987;SDS011;3021;51.000;6.980;2023-06-01T14:39:48;15.30;;;7.10;;
5987;SDS011;3021;51.000;6.980;2023-06-01T14:42:14;14.55;;;6.72;;
5987;SDS011;3021;51.000;6.980;2023-06-01T14:44:40;17.60;;;7.00;;
5987;SDS011;3021;51.000;6.980;2023-06-01T14:47:06;11.75;;;6.97;;
5987;SDS011;3021;51.000;6.980;2023-06-01T14:49:31;16.17;;;6.82;;
5987;SDS011;3021;51.000;6.980;2023-06-01T14:51:56;14.63;;;7.15;;
5987;SDS011;3021;51.000;6.980;2023-06-01T14:54:22;19.77;;;7.82;;
5987;SDS011;3021;51.000;6.980;2023-06-01T14:56:47;12.60;;;6.80;;
5987;SDS011;3021;51.000;6.980;2023-06-01T14:59:14;17.30;;;7.05;;
5987;SDS011;3021;51.000;6.980;2023-06-01T15:01:39;15.90;;;7.68;;
5987;SDS011;3021;51.000;6.980;2023-06-01T15:04:05;21.90;;;8.50;;
5987;SDS011;3021;51.000;6.980;2023-06-01T15:06:31;23.80;;;8.38;;
5987;SDS011;3021;51.000;6.980;2023-06-01T15:08:56;11.65;;;6.95;;
5987;SDS011;3021;51.000;6.980;2023-06-01T15:11:22;16.65;;;6.47;;
5987;SDS011;3021;51.000;6.980;2023-06-01T15:13:47;19.55;;;6.93;;
5987;SDS011;3021;51.000;6.980;2023-06-01T15:16:12;12.32;;;6.63;;
5987;SDS011;3021;51.000;6.980;2023-06-01T15:18:38;11.57;;;7.28;;
5987;SDS011;3021;51.000;6.980;2023-06-01T15:21:03;14.85;;;6.82;;
5987;SDS011;3021;51.000;6.980;2023-06-01T15:23:29;15.15;;;6.80;;
5987;SDS011;3021;51.000;6.980;2023-06-01T15:25:54;12.35;;;6.47;;
5987;SDS011;3021;51.000;6.980;2023-06-01T15:28:20;15.45;;;6.63;;
5987;SDS011;3021;51.000;6.980;2023-06-01T15:30:45;11.10;;;6.45;;
5987;SDS011;3021;51.000;6.980;2023-06-01T15:33:11;10.68;;;6.55;;
5987;SDS011;3021;51.000;6.980;2023-06-01T15:35:38;9.18;;;6.35;;
5987;SDS011;3021;51.000;6.980;2023-06-01T15:38:03;10.32;;;5.60;;
5987;SDS011;3021;51.000;6.980;2023-06-01T15:40:29;12.65;;;6.28;;
5987;SDS011;3021;51.000;6.980;2023-06-01T15:42:54;10.23;;;6.15;;
5987;SDS011;3021;51.000;6.980;2023-06-01T15:45:20;13.30;;;6.47;;
5987;SDS011;3021;51.000;6.980;2023-06-01T15:47:45;10.25;;;6.05;;